This is the latest recevied weather packets stored in our database for station/object SV3CQY. If no packets are shown the sender has not sent any weather packets the latest 10 day(s).
| Time | Temp. | Humidity | Pressure | Rain* | Wind** | Luminosity | Snow |
|---|---|---|---|---|---|---|---|
| 1778072107 | 25° C | 24% | 1014.3 hPa | 0 mm | - | - | - |
| 1778071525 | 25° C | 23% | 1014.5 hPa | 0 mm | - | - | - |
| 1778069111 | 25° C | 32% | 1014.5 hPa | 0 mm | - | - | - |
| 1778068214 | 25° C | 22% | 1014.5 hPa | 0 mm | - | - | - |
| 1778067933 | 26.11° C | 19% | 1014.5 hPa | 0 mm | - | - | - |
| 1778067310 | 26.67° C | 19% | 1014.6 hPa | 0 mm | - | - | - |
| 1778060727 | 23.33° C | 36% | 1015.5 hPa | 0 mm | - | - | - |
| 1778058928 | 23.89° C | 35% | 1015.8 hPa | 0 mm | - | - | - |
| 1778058307 | 23.33° C | 35% | 1015.8 hPa | 0 mm | - | - | - |
| 1778058027 | 23.33° C | 35% | 1015.7 hPa | 0 mm | - | - | - |
| 1778056811 | 22.78° C | 38% | 1015.7 hPa | 0 mm | - | - | - |
| 1778055328 | 22.22° C | 41% | 1015.8 hPa | 0 mm | - | - | - |
| 1778054713 | 21.67° C | 43% | 1015.7 hPa | 0 mm | - | - | - |
| 1778054433 | 21.67° C | 48% | 1015.7 hPa | 0 mm | - | - | - |
| 1778054108 | 21.11° C | 54% | 1015.7 hPa | 0 mm | - | - | - |
| 1778050826 | 19.44° C | 58% | 1015.9 hPa | 0 mm | - | - | - |
| 1778050208 | 18.33° C | 70% | 1016 hPa | 0 mm | - | - | - |
| 1778049027 | 17.22° C | 80% | 1016.1 hPa | 0 mm | - | - | - |
| 1778047511 | 17.22° C | 81% | 1015.9 hPa | 0 mm | - | - | - |
| 1778046615 | 16.67° C | 81% | 1015.8 hPa | 0 mm | - | - | - |
| 1778045710 | 16.67° C | 82% | 1015.8 hPa | 0 mm | - | - | - |
| 1778043631 | 16.11° C | 83% | 1015.7 hPa | 0 mm | - | - | - |
| 1778041827 | 16.11° C | 82% | 1015.6 hPa | 0 mm | - | - | - |
| 1778040926 | 15° C | 79% | 1015.7 hPa | 0 mm | - | - | - |
| 1778040048 | 14.44° C | 69% | 1015.5 hPa | 0 mm | - | - | - |
* Rain latest hour (hover to see other rain measurements)
** Current wind speed in m/s (hover to see current wind gust speed)